createdAt,value
2019-05-23T00:00:27.750Z,16.27
2019-05-23T00:03:38.786Z,16.80
2019-05-23T00:06:44.991Z,16.33
2019-05-23T00:09:51.590Z,16.30
2019-05-23T00:13:00.584Z,16.03
2019-05-23T00:16:06.485Z,17.80
2019-05-23T00:19:14.384Z,17.43
2019-05-23T00:22:20.301Z,16.80
2019-05-23T00:25:25.480Z,15.20
2019-05-23T00:28:31.824Z,17.83
2019-05-23T00:31:41.374Z,16.47
2019-05-23T00:34:47.110Z,16.03
2019-05-23T00:37:52.897Z,16.70
2019-05-23T00:40:59.678Z,16.33
2019-05-23T00:44:05.230Z,17.93
2019-05-23T00:47:10.969Z,16.83
2019-05-23T00:50:20.779Z,16.27
2019-05-23T00:53:26.193Z,15.57
2019-05-23T00:56:31.542Z,16.33
2019-05-23T00:59:36.941Z,16.40
2019-05-23T01:02:43.063Z,17.30
2019-05-23T01:05:48.410Z,15.93
2019-05-23T01:08:54.169Z,16.03
2019-05-23T01:11:59.216Z,14.57
2019-05-23T01:15:05.773Z,15.20
2019-05-23T01:18:11.696Z,14.33
2019-05-23T01:21:26.484Z,14.30
2019-05-23T01:24:47.449Z,15.07
2019-05-23T01:27:53.036Z,16.10
2019-05-23T01:31:00.222Z,14.83
2019-05-23T01:34:06.953Z,14.27
2019-05-23T01:37:13.936Z,14.60
2019-05-23T01:40:20.723Z,14.90
2019-05-23T01:43:26.239Z,14.97
2019-05-23T01:46:31.538Z,15.63
2019-05-23T01:49:36.929Z,13.33
2019-05-23T01:52:42.497Z,15.70
2019-05-23T01:55:47.700Z,14.63
2019-05-23T01:58:53.090Z,14.53
2019-05-23T02:01:58.244Z,14.93
2019-05-23T02:05:04.710Z,13.97
2019-05-23T02:08:13.587Z,13.60
2019-05-23T02:11:21.236Z,14.60
2019-05-23T02:14:27.306Z,13.67
2019-05-23T02:17:34.393Z,12.50
2019-05-23T02:20:39.413Z,14.97
2019-05-23T02:23:45.685Z,15.23
2019-05-23T02:26:50.885Z,16.43
2019-05-23T02:29:56.200Z,15.90
2019-05-23T02:33:02.291Z,14.00
2019-05-23T02:36:08.627Z,16.47
2019-05-23T02:39:34.421Z,14.90
2019-05-23T02:42:47.349Z,14.57
2019-05-23T02:45:55.817Z,14.00
2019-05-23T02:49:04.228Z,14.83
2019-05-23T02:52:34.707Z,15.70
2019-05-23T02:55:40.600Z,17.07
2019-05-23T02:59:04.622Z,17.97
2019-05-23T03:02:56.116Z,18.07
2019-05-23T03:06:06.730Z,18.70
2019-05-23T03:09:12.557Z,17.13
2019-05-23T03:12:18.519Z,14.93
2019-05-23T03:15:24.979Z,15.27
2019-05-23T03:18:34.579Z,14.37
2019-05-23T03:21:38.957Z,14.40
2019-05-23T03:24:44.152Z,12.23
2019-05-23T03:27:50.513Z,12.10
2019-05-23T03:31:25.387Z,13.60
2019-05-23T03:34:07.919Z,14.10
2019-05-23T03:37:15.291Z,14.63
2019-05-23T03:40:21.260Z,12.87
2019-05-23T03:43:26.584Z,13.27
2019-05-23T03:46:34.531Z,14.93
2019-05-23T03:49:39.915Z,15.17
2019-05-23T03:52:46.065Z,14.23
2019-05-23T03:55:53.737Z,15.27
2019-05-23T03:59:02.238Z,15.80
2019-05-23T04:02:09.181Z,15.90
2019-05-23T04:05:14.983Z,12.80
2019-05-23T04:08:20.791Z,13.53
2019-05-23T04:11:26.137Z,16.70
2019-05-23T04:14:31.261Z,14.30
2019-05-23T04:17:36.209Z,15.40
2019-05-23T04:20:41.377Z,13.80
2019-05-23T04:23:46.330Z,14.47
2019-05-23T04:26:51.595Z,15.13
2019-05-23T04:29:56.871Z,16.77
2019-05-23T04:33:04.118Z,14.83
2019-05-23T04:36:10.301Z,15.63
2019-05-23T04:39:15.389Z,16.27
2019-05-23T04:42:21.399Z,16.27
2019-05-23T04:45:27.763Z,15.30
2019-05-23T04:48:33.018Z,14.27
2019-05-23T04:51:38.665Z,15.30
2019-05-23T04:54:44.363Z,15.07
2019-05-23T04:57:49.841Z,15.67
2019-05-23T05:00:55.886Z,14.97
2019-05-23T05:04:02.305Z,15.40
2019-05-23T05:07:07.610Z,15.63
2019-05-23T05:10:17.112Z,15.53
2019-05-23T05:13:22.319Z,14.83
2019-05-23T05:16:27.462Z,15.40
2019-05-23T05:19:32.956Z,16.60
2019-05-23T05:22:42.219Z,17.27
2019-05-23T05:25:47.333Z,18.07
2019-05-23T05:28:54.890Z,18.93
2019-05-23T05:32:03.740Z,18.57
2019-05-23T05:35:09.186Z,19.63
2019-05-23T05:38:15.364Z,18.77
2019-05-23T05:41:21.138Z,19.20
2019-05-23T05:44:28.445Z,19.33
2019-05-23T05:47:34.242Z,20.37
2019-05-23T05:50:39.934Z,19.30
2019-05-23T05:53:44.971Z,19.63
2019-05-23T05:56:50.509Z,19.37
2019-05-23T05:59:55.651Z,19.43
2019-05-23T06:03:05.214Z,21.27
2019-05-23T06:06:26.503Z,24.37
2019-05-23T06:09:33.034Z,21.20
2019-05-23T06:12:40.669Z,20.60
2019-05-23T06:15:48.790Z,19.80
2019-05-23T06:18:54.897Z,20.47
2019-05-23T06:22:04.338Z,20.60
2019-05-23T06:25:10.230Z,18.73
2019-05-23T06:28:16.661Z,19.73
2019-05-23T06:31:22.464Z,20.00
2019-05-23T06:34:30.225Z,18.73
2019-05-23T06:37:36.265Z,22.27
2019-05-23T06:40:41.929Z,20.50
2019-05-23T06:43:47.155Z,17.63
2019-05-23T06:46:52.336Z,20.73
2019-05-23T06:49:59.427Z,17.43
2019-05-23T06:53:05.072Z,18.70
2019-05-23T06:56:12.221Z,20.27
2019-05-23T06:59:17.449Z,19.37
2019-05-23T07:02:31.211Z,19.00
2019-05-23T07:05:37.455Z,17.43
2019-05-23T07:08:42.561Z,17.33
2019-05-23T07:11:54.719Z,17.20
2019-05-23T07:14:59.771Z,16.60
2019-05-23T07:18:07.088Z,17.03
2019-05-23T07:21:12.725Z,16.30
2019-05-23T07:24:19.962Z,16.47
2019-05-23T07:27:27.474Z,16.80
2019-05-23T07:30:32.739Z,16.97
2019-05-23T07:33:38.197Z,15.93
2019-05-23T07:36:43.608Z,14.57
2019-05-23T07:39:50.894Z,12.70
2019-05-23T07:42:56.575Z,14.27
2019-05-23T07:46:03.244Z,11.53
2019-05-23T07:49:08.257Z,11.00
2019-05-23T07:52:17.455Z,10.97
2019-05-23T07:55:29.369Z,11.70
2019-05-23T07:58:34.658Z,9.80
2019-05-23T08:01:43.064Z,9.43
2019-05-23T08:04:48.506Z,10.27
2019-05-23T08:07:53.970Z,9.90
2019-05-23T08:10:59.111Z,13.27
2019-05-23T08:14:06.180Z,10.60
2019-05-23T08:17:11.675Z,9.60
2019-05-23T08:20:19.148Z,10.73
2019-05-23T08:23:24.369Z,11.50
2019-05-23T08:26:31.241Z,10.30
2019-05-23T08:29:38.863Z,10.37
2019-05-23T08:32:44.456Z,10.60
2019-05-23T08:35:49.750Z,9.53
2019-05-23T08:38:55.434Z,10.93
2019-05-23T08:42:01.741Z,10.50
2019-05-23T08:45:08.921Z,10.43
2019-05-23T08:48:17.739Z,9.90
2019-05-23T08:51:22.753Z,11.07
2019-05-23T08:54:28.703Z,9.90
2019-05-23T08:57:35.142Z,9.23
2019-05-23T09:00:41.396Z,9.67
2019-05-23T09:03:47.654Z,10.83
2019-05-23T09:06:52.841Z,10.10
2019-05-23T09:09:59.626Z,9.53
2019-05-23T09:13:04.785Z,9.30
2019-05-23T09:16:11.475Z,11.47
2019-05-23T09:19:16.568Z,10.50
2019-05-23T09:22:22.036Z,11.20
2019-05-23T09:25:27.065Z,10.50
2019-05-23T09:28:33.038Z,10.17
2019-05-23T09:31:39.242Z,10.27
2019-05-23T09:34:46.170Z,8.93
2019-05-23T09:37:51.263Z,9.43
2019-05-23T09:40:56.365Z,9.00
2019-05-23T09:44:01.413Z,8.50
2019-05-23T09:47:06.611Z,9.90
2019-05-23T09:50:15.960Z,9.70
2019-05-23T09:53:21.338Z,9.33
2019-05-23T09:56:28.917Z,9.90
2019-05-23T09:59:34.034Z,9.80
2019-05-23T10:02:40.337Z,10.80
2019-05-23T10:05:45.986Z,10.20
2019-05-23T10:08:51.636Z,10.00
2019-05-23T10:11:58.360Z,9.97
2019-05-23T10:15:03.634Z,9.60
2019-05-23T10:18:10.850Z,8.80
2019-05-23T10:21:15.972Z,9.50
2019-05-23T10:24:22.745Z,7.87
2019-05-23T10:27:27.884Z,8.10
2019-05-23T10:30:33.643Z,8.23
2019-05-23T10:33:38.750Z,7.50
2019-05-23T10:36:45.686Z,9.70
2019-05-23T10:39:54.648Z,9.73
2019-05-23T10:43:00.066Z,9.00
2019-05-23T10:46:06.657Z,9.23
2019-05-23T10:49:12.161Z,8.03
2019-05-23T10:52:18.279Z,8.40
2019-05-23T10:55:23.404Z,9.47
2019-05-23T10:58:29.299Z,9.37
2019-05-23T11:01:34.882Z,7.90
2019-05-23T11:04:40.414Z,9.13
2019-05-23T11:07:45.562Z,10.10
2019-05-23T11:10:51.247Z,9.10
2019-05-23T11:13:56.950Z,9.70
2019-05-23T11:17:02.474Z,9.60
2019-05-23T11:20:10.253Z,8.50
2019-05-23T11:23:25.301Z,8.00
2019-05-23T11:26:30.630Z,7.17
2019-05-23T11:29:35.714Z,8.33
2019-05-23T11:32:42.783Z,7.07
2019-05-23T11:35:48.163Z,8.00
2019-05-23T11:38:54.086Z,8.97
2019-05-23T11:41:59.166Z,8.00
2019-05-23T11:45:08.038Z,8.57
2019-05-23T11:48:16.175Z,7.80
2019-05-23T11:51:25.165Z,9.93
2019-05-23T11:54:29.112Z,8.63
2019-05-23T11:57:37.553Z,8.43
2019-05-23T12:01:21.424Z,8.73
2019-05-23T12:04:33.863Z,7.73
2019-05-23T12:07:39.839Z,7.90
2019-05-23T12:10:47.275Z,7.37
2019-05-23T12:13:52.575Z,6.80
2019-05-23T12:16:58.551Z,6.80
2019-05-23T12:20:04.515Z,6.40
2019-05-23T12:23:11.611Z,7.60
2019-05-23T12:26:16.699Z,6.80
2019-05-23T12:29:22.207Z,7.57
2019-05-23T12:32:27.121Z,6.80
2019-05-23T12:35:34.085Z,7.00
2019-05-23T12:38:39.285Z,6.20
2019-05-23T12:41:45.014Z,7.20
2019-05-23T12:44:49.956Z,7.03
2019-05-23T12:48:01.437Z,6.93
2019-05-23T12:51:07.106Z,8.27
2019-05-23T12:54:12.293Z,7.23
2019-05-23T12:57:18.575Z,7.63
2019-05-23T13:00:31.021Z,8.63
2019-05-23T13:03:36.698Z,6.10
2019-05-23T13:06:41.868Z,8.33
2019-05-23T13:09:47.680Z,6.70
2019-05-23T13:12:53.965Z,5.87
2019-05-23T13:15:59.099Z,6.47
2019-05-23T13:19:04.580Z,6.83
2019-05-23T13:22:11.343Z,6.60
2019-05-23T13:25:16.866Z,6.60
2019-05-23T13:28:22.024Z,7.43
2019-05-23T13:31:27.471Z,6.67
2019-05-23T13:34:32.550Z,5.53
2019-05-23T13:37:52.455Z,6.73
2019-05-23T13:40:45.390Z,7.80
2019-05-23T13:43:52.618Z,6.30
2019-05-23T13:46:57.636Z,6.70
2019-05-23T13:50:03.146Z,5.73
2019-05-23T13:53:09.423Z,5.87
2019-05-23T13:56:16.473Z,6.33
2019-05-23T13:59:21.826Z,7.63
2019-05-23T14:02:26.921Z,8.47
2019-05-23T14:05:32.196Z,6.93
2019-05-23T14:08:37.378Z,6.20
2019-05-23T14:11:45.923Z,6.03
2019-05-23T14:14:50.917Z,6.20
2019-05-23T14:17:57.114Z,5.40
2019-05-23T14:21:02.309Z,5.47
2019-05-23T14:24:10.714Z,5.50
2019-05-23T14:27:33.338Z,5.30
2019-05-23T14:30:45.718Z,5.47
2019-05-23T14:34:08.307Z,6.90
2019-05-23T14:37:20.085Z,5.90
2019-05-23T14:40:26.567Z,6.20
2019-05-23T14:43:31.749Z,6.27
2019-05-23T14:46:46.278Z,5.97
2019-05-23T14:50:11.722Z,5.97
2019-05-23T14:53:19.484Z,6.10
2019-05-23T14:56:25.998Z,6.20
2019-05-23T14:59:36.586Z,7.10
2019-05-23T15:02:42.868Z,7.10
2019-05-23T15:05:49.618Z,6.67
2019-05-23T15:09:01.863Z,5.87
2019-05-23T15:12:07.246Z,6.90
2019-05-23T15:15:13.177Z,5.10
2019-05-23T15:18:18.270Z,6.43
2019-05-23T15:21:23.797Z,6.00
2019-05-23T15:24:28.944Z,4.90
2019-05-23T15:27:34.493Z,5.83
2019-05-23T15:30:39.506Z,6.10
2019-05-23T15:33:45.403Z,5.53
2019-05-23T15:36:50.554Z,5.30
2019-05-23T15:39:56.082Z,5.77
2019-05-23T15:43:01.153Z,5.53
2019-05-23T15:46:08.157Z,6.10
2019-05-23T15:49:14.252Z,6.23
2019-05-23T15:52:30.229Z,6.13
2019-05-23T15:55:44.858Z,5.60
2019-05-23T15:59:07.387Z,6.57
2019-05-23T16:02:18.814Z,6.13
2019-05-23T16:05:25.253Z,6.30
2019-05-23T16:08:31.668Z,6.13
2019-05-23T16:11:36.626Z,6.40
2019-05-23T16:14:42.562Z,6.70
2019-05-23T16:17:47.637Z,7.33
2019-05-23T16:20:54.538Z,5.83
2019-05-23T16:24:02.229Z,6.00
2019-05-23T16:27:08.016Z,5.83
2019-05-23T16:30:13.906Z,6.10
2019-05-23T16:33:19.053Z,7.17
2019-05-23T16:36:24.683Z,6.53
2019-05-23T16:39:45.858Z,6.47
2019-05-23T16:42:37.017Z,6.33
2019-05-23T16:45:42.565Z,5.20
2019-05-23T16:48:48.163Z,6.23
2019-05-23T16:51:53.351Z,5.90
2019-05-23T16:54:59.712Z,6.40
2019-05-23T16:58:12.060Z,5.43
2019-05-23T17:01:33.903Z,6.37
2019-05-23T17:05:09.050Z,5.20
2019-05-23T17:08:21.431Z,6.80
2019-05-23T17:11:38.770Z,6.73
2019-05-23T17:14:52.374Z,6.03
2019-05-23T17:18:18.297Z,5.93
2019-05-23T17:21:37.950Z,6.17
2019-05-23T17:24:51.101Z,5.90
2019-05-23T17:28:11.202Z,6.13
2019-05-23T17:31:18.286Z,6.20
2019-05-23T17:34:23.238Z,6.37
2019-05-23T17:37:28.842Z,4.83
2019-05-23T17:40:34.303Z,5.40
2019-05-23T17:43:39.427Z,5.50
2019-05-23T17:46:44.697Z,4.87
2019-05-23T17:49:49.656Z,5.10
2019-05-23T17:52:54.697Z,5.70
2019-05-23T17:55:59.886Z,5.70
2019-05-23T17:59:05.277Z,5.67
2019-05-23T18:02:11.948Z,5.50
2019-05-23T18:05:17.345Z,7.40
2019-05-23T18:08:23.338Z,5.50
2019-05-23T18:11:29.170Z,5.27
2019-05-23T18:14:34.623Z,8.70
2019-05-23T18:17:40.202Z,5.37
2019-05-23T18:20:45.750Z,6.47
2019-05-23T18:23:52.617Z,5.50
2019-05-23T18:26:57.662Z,5.57
2019-05-23T18:30:04.509Z,6.33
2019-05-23T18:33:10.501Z,5.53
2019-05-23T18:36:16.026Z,5.20
2019-05-23T18:39:22.841Z,5.80
2019-05-23T18:42:27.961Z,5.77
2019-05-23T18:45:34.643Z,5.30
2019-05-23T18:48:39.601Z,5.60
2019-05-23T18:51:44.707Z,5.57
2019-05-23T18:54:49.721Z,5.77
2019-05-23T18:57:55.018Z,5.97
2019-05-23T19:01:16.534Z,4.77
2019-05-23T19:04:21.628Z,5.50
2019-05-23T19:07:27.196Z,6.47
2019-05-23T19:10:32.417Z,6.37
2019-05-23T19:13:37.596Z,6.47
2019-05-23T19:16:42.728Z,6.00
2019-05-23T19:19:48.109Z,6.63
2019-05-23T19:22:53.368Z,6.90
2019-05-23T19:25:58.521Z,7.77
2019-05-23T19:29:04.360Z,7.80
2019-05-23T19:32:10.934Z,8.73
2019-05-23T19:35:16.119Z,7.33
2019-05-23T19:38:21.392Z,7.80
2019-05-23T19:41:37.473Z,7.67
2019-05-23T19:44:36.306Z,8.90
2019-05-23T19:47:41.500Z,9.30
2019-05-23T19:50:46.526Z,8.20
2019-05-23T19:53:51.989Z,9.07
2019-05-23T19:56:57.117Z,9.10
2019-05-23T20:00:02.453Z,8.77
2019-05-23T20:03:09.298Z,9.33
2019-05-23T20:06:16.165Z,9.03
2019-05-23T20:09:23.546Z,8.57
2019-05-23T20:12:29.056Z,11.37
2019-05-23T20:15:36.422Z,10.60
2019-05-23T20:18:41.807Z,10.33
2019-05-23T20:21:46.937Z,10.40
2019-05-23T20:24:51.953Z,9.80
2019-05-23T20:27:57.031Z,9.80
2019-05-23T20:31:04.006Z,9.07
2019-05-23T20:34:09.200Z,9.60
2019-05-23T20:37:14.537Z,10.20
2019-05-23T20:40:20.210Z,10.50
2019-05-23T20:43:26.771Z,11.07
2019-05-23T20:46:31.997Z,9.80
2019-05-23T20:49:37.145Z,11.43
2019-05-23T20:52:42.233Z,10.00
2019-05-23T20:55:47.200Z,9.70
2019-05-23T20:58:52.141Z,11.33
2019-05-23T21:01:57.400Z,11.57
2019-05-23T21:05:02.518Z,10.30
2019-05-23T21:08:07.828Z,10.80
2019-05-23T21:11:12.846Z,11.20
2019-05-23T21:14:18.278Z,10.77
2019-05-23T21:17:24.225Z,12.20
2019-05-23T21:20:29.365Z,10.10
2019-05-23T21:23:35.513Z,11.40
2019-05-23T21:26:40.800Z,11.07
2019-05-23T21:29:45.760Z,10.60
2019-05-23T21:32:50.878Z,10.50
2019-05-23T21:35:55.911Z,12.40
2019-05-23T21:39:00.998Z,10.60
2019-05-23T21:42:06.079Z,10.93
2019-05-23T21:45:11.193Z,12.13
2019-05-23T21:48:17.382Z,10.70
2019-05-23T21:51:23.020Z,11.57
2019-05-23T21:54:28.150Z,11.93
2019-05-23T21:57:33.088Z,11.90
2019-05-23T22:01:21.455Z,12.77
2019-05-23T22:04:41.164Z,11.28
2019-05-23T22:07:46.501Z,11.50
2019-05-23T22:10:51.791Z,12.20
2019-05-23T22:13:57.084Z,12.10
2019-05-23T22:17:02.886Z,12.83
2019-05-23T22:20:08.285Z,13.60
2019-05-23T22:23:13.781Z,12.43
2019-05-23T22:26:19.069Z,12.80
2019-05-23T22:29:24.691Z,13.57
2019-05-23T22:32:31.370Z,13.00
2019-05-23T22:35:36.330Z,12.70
2019-05-23T22:38:41.401Z,13.57
2019-05-23T22:41:46.426Z,11.53
2019-05-23T22:44:51.887Z,11.63
2019-05-23T22:47:56.901Z,11.23
2019-05-23T22:51:01.929Z,12.20
2019-05-23T22:54:07.488Z,11.67
2019-05-23T22:57:12.501Z,11.07
2019-05-23T23:00:22.329Z,12.53
2019-05-23T23:03:27.407Z,11.90
2019-05-23T23:06:32.729Z,11.87
2019-05-23T23:09:37.857Z,11.70
2019-05-23T23:12:42.797Z,11.60
2019-05-23T23:15:47.824Z,12.20
2019-05-23T23:18:52.846Z,10.33
2019-05-23T23:21:58.253Z,11.57
2019-05-23T23:25:03.361Z,11.60
2019-05-23T23:28:08.384Z,10.83
2019-05-23T23:31:13.416Z,12.57
2019-05-23T23:34:18.579Z,12.40
2019-05-23T23:37:23.669Z,13.20
2019-05-23T23:40:28.872Z,12.63
2019-05-23T23:43:34.006Z,11.63
2019-05-23T23:46:57.194Z,11.20
2019-05-23T23:50:20.008Z,11.73
2019-05-23T23:53:42.704Z,12.40
2019-05-23T23:57:05.556Z,11.77
